sensor_id;sensor_type;location;lat;lon;timestamp;pressure;altitude;pressure_sealevel;temperature;humidity
5574;BME280;2563;52.242;7.956;2023-04-23T00:00:00;98336.84;;;11.17;100.00
5574;BME280;2563;52.242;7.956;2023-04-23T00:02:28;98330.06;;;11.16;100.00
5574;BME280;2563;52.242;7.956;2023-04-23T00:04:56;98335.38;;;11.13;100.00
5574;BME280;2563;52.242;7.956;2023-04-23T00:07:24;98339.63;;;11.14;100.00
5574;BME280;2563;52.242;7.956;2023-04-23T00:09:51;98331.53;;;11.06;100.00
5574;BME280;2563;52.242;7.956;2023-04-23T00:12:17;98326.06;;;10.98;100.00
5574;BME280;2563;52.242;7.956;2023-04-23T00:14:42;98333.16;;;10.94;100.00
5574;BME280;2563;52.242;7.956;2023-04-23T00:17:08;98328.38;;;10.88;100.00
5574;BME280;2563;52.242;7.956;2023-04-23T00:19:33;98329.59;;;10.82;100.00
5574;BME280;2563;52.242;7.956;2023-04-23T00:21:58;98333.25;;;10.78;100.00
5574;BME280;2563;52.242;7.956;2023-04-23T00:24:24;98338.41;;;10.78;100.00
5574;BME280;2563;52.242;7.956;2023-04-23T00:26:49;98347.22;;;10.74;100.00
5574;BME280;2563;52.242;7.956;2023-04-23T00:29:17;98364.94;;;10.79;100.00
5574;BME280;2563;52.242;7.956;2023-04-23T00:31:42;98349.97;;;10.71;100.00
5574;BME280;2563;52.242;7.956;2023-04-23T00:34:07;98353.28;;;10.73;100.00
5574;BME280;2563;52.242;7.956;2023-04-23T00:36:33;98359.34;;;10.72;100.00
5574;BME280;2563;52.242;7.956;2023-04-23T00:38:58;98353.56;;;10.69;100.00
5574;BME280;2563;52.242;7.956;2023-04-23T00:41:24;98354.19;;;10.72;100.00
5574;BME280;2563;52.242;7.956;2023-04-23T00:43:49;98356.03;;;10.70;100.00
5574;BME280;2563;52.242;7.956;2023-04-23T00:46:16;98350.88;;;10.70;100.00
5574;BME280;2563;52.242;7.956;2023-04-23T00:48:42;98340.97;;;10.64;100.00
5574;BME280;2563;52.242;7.956;2023-04-23T00:51:10;98346.47;;;10.58;100.00
5574;BME280;2563;52.242;7.956;2023-04-23T00:53:35;98347.31;;;10.58;100.00
5574;BME280;2563;52.242;7.956;2023-04-23T00:56:03;98336.38;;;10.55;100.00
5574;BME280;2563;52.242;7.956;2023-04-23T00:58:29;98337.38;;;10.52;100.00
5574;BME280;2563;52.242;7.956;2023-04-23T01:00:58;98340.88;;;10.51;100.00
5574;BME280;2563;52.242;7.956;2023-04-23T01:03:27;98333.44;;;10.47;100.00
5574;BME280;2563;52.242;7.956;2023-04-23T01:05:54;98339.69;;;10.42;100.00
5574;BME280;2563;52.242;7.956;2023-04-23T01:08:20;98354.38;;;10.40;100.00
5574;BME280;2563;52.242;7.956;2023-04-23T01:10:47;98367.16;;;10.42;100.00
5574;BME280;2563;52.242;7.956;2023-04-23T01:13:13;98360.34;;;10.41;100.00
5574;BME280;2563;52.242;7.956;2023-04-23T01:15:39;98356.19;;;10.38;100.00
5574;BME280;2563;52.242;7.956;2023-04-23T01:18:04;98364.66;;;10.40;100.00
5574;BME280;2563;52.242;7.956;2023-04-23T01:20:32;98360.44;;;10.39;100.00
5574;BME280;2563;52.242;7.956;2023-04-23T01:22:58;98368.72;;;10.45;100.00
5574;BME280;2563;52.242;7.956;2023-04-23T01:25:24;98369.44;;;10.47;100.00
5574;BME280;2563;52.242;7.956;2023-04-23T01:27:49;98365.41;;;10.42;100.00
5574;BME280;2563;52.242;7.956;2023-04-23T01:30:15;98362.81;;;10.42;100.00
5574;BME280;2563;52.242;7.956;2023-04-23T01:32:41;98376.41;;;10.45;100.00
5574;BME280;2563;52.242;7.956;2023-04-23T01:35:07;98371.47;;;10.41;100.00
5574;BME280;2563;52.242;7.956;2023-04-23T01:37:33;98372.28;;;10.42;100.00
5574;BME280;2563;52.242;7.956;2023-04-23T01:39:59;98380.28;;;10.37;100.00
5574;BME280;2563;52.242;7.956;2023-04-23T01:42:25;98378.78;;;10.33;100.00
5574;BME280;2563;52.242;7.956;2023-04-23T01:44:51;98375.81;;;10.25;100.00
5574;BME280;2563;52.242;7.956;2023-04-23T01:47:17;98380.09;;;10.25;100.00
5574;BME280;2563;52.242;7.956;2023-04-23T01:49:43;98395.72;;;10.21;100.00
5574;BME280;2563;52.242;7.956;2023-04-23T01:52:09;98391.75;;;10.16;100.00
5574;BME280;2563;52.242;7.956;2023-04-23T01:54:35;98401.13;;;10.17;100.00
5574;BME280;2563;52.242;7.956;2023-04-23T01:57:00;98396.34;;;10.11;100.00
5574;BME280;2563;52.242;7.956;2023-04-23T01:59:27;98385.41;;;10.07;100.00
5574;BME280;2563;52.242;7.956;2023-04-23T02:01:52;98383.81;;;10.05;100.00
5574;BME280;2563;52.242;7.956;2023-04-23T02:04:18;98405.22;;;10.05;100.00
5574;BME280;2563;52.242;7.956;2023-04-23T02:06:46;98397.59;;;10.04;100.00
5574;BME280;2563;52.242;7.956;2023-04-23T02:09:11;98382.53;;;9.97;100.00
5574;BME280;2563;52.242;7.956;2023-04-23T02:11:37;98384.34;;;9.95;100.00
5574;BME280;2563;52.242;7.956;2023-04-23T02:14:04;98381.78;;;9.95;100.00
5574;BME280;2563;52.242;7.956;2023-04-23T02:16:30;98379.38;;;9.92;100.00
5574;BME280;2563;52.242;7.956;2023-04-23T02:18:55;98383.72;;;9.92;100.00
5574;BME280;2563;52.242;7.956;2023-04-23T02:21:23;98387.28;;;9.89;100.00
5574;BME280;2563;52.242;7.956;2023-04-23T02:23:48;98392.31;;;9.91;100.00
5574;BME280;2563;52.242;7.956;2023-04-23T02:26:15;98379.81;;;9.85;100.00
5574;BME280;2563;52.242;7.956;2023-04-23T02:28:40;98386.84;;;9.81;100.00
5574;BME280;2563;52.242;7.956;2023-04-23T02:31:06;98387.69;;;9.82;100.00
5574;BME280;2563;52.242;7.956;2023-04-23T02:33:31;98389.78;;;9.75;100.00
5574;BME280;2563;52.242;7.956;2023-04-23T02:35:56;98409.41;;;9.76;100.00
5574;BME280;2563;52.242;7.956;2023-04-23T02:38:22;98394.81;;;9.76;100.00
5574;BME280;2563;52.242;7.956;2023-04-23T02:40:47;98385.53;;;9.74;100.00
5574;BME280;2563;52.242;7.956;2023-04-23T02:43:12;98406.28;;;9.71;100.00
5574;BME280;2563;52.242;7.956;2023-04-23T02:45:38;98399.50;;;9.70;100.00
5574;BME280;2563;52.242;7.956;2023-04-23T02:48:03;98397.06;;;9.67;100.00
5574;BME280;2563;52.242;7.956;2023-04-23T02:50:29;98407.44;;;9.65;100.00
5574;BME280;2563;52.242;7.956;2023-04-23T02:52:54;98401.47;;;9.65;100.00
5574;BME280;2563;52.242;7.956;2023-04-23T02:55:20;98401.63;;;9.62;100.00
5574;BME280;2563;52.242;7.956;2023-04-23T02:57:46;98407.84;;;9.57;100.00
5574;BME280;2563;52.242;7.956;2023-04-23T03:00:14;98421.44;;;9.59;100.00
5574;BME280;2563;52.242;7.956;2023-04-23T03:02:41;98405.28;;;9.57;100.00
5574;BME280;2563;52.242;7.956;2023-04-23T03:05:07;98413.91;;;9.56;100.00
5574;BME280;2563;52.242;7.956;2023-04-23T03:07:32;98416.72;;;9.52;100.00
5574;BME280;2563;52.242;7.956;2023-04-23T03:09:57;98418.53;;;9.50;100.00
5574;BME280;2563;52.242;7.956;2023-04-23T03:12:23;98414.41;;;9.47;100.00
5574;BME280;2563;52.242;7.956;2023-04-23T03:14:48;98428.00;;;9.49;100.00
5574;BME280;2563;52.242;7.956;2023-04-23T03:17:13;98421.28;;;9.47;100.00
5574;BME280;2563;52.242;7.956;2023-04-23T03:19:39;98421.34;;;9.45;100.00
5574;BME280;2563;52.242;7.956;2023-04-23T03:22:04;98413.91;;;9.41;100.00
5574;BME280;2563;52.242;7.956;2023-04-23T03:24:32;98424.41;;;9.36;100.00
5574;BME280;2563;52.242;7.956;2023-04-23T03:26:57;98420.38;;;9.32;100.00
5574;BME280;2563;52.242;7.956;2023-04-23T03:29:22;98425.91;;;9.24;100.00
5574;BME280;2563;52.242;7.956;2023-04-23T03:31:48;98426.06;;;9.21;100.00
5574;BME280;2563;52.242;7.956;2023-04-23T03:34:13;98428.13;;;9.14;100.00
5574;BME280;2563;52.242;7.956;2023-04-23T03:36:39;98428.53;;;9.07;100.00
5574;BME280;2563;52.242;7.956;2023-04-23T03:39:05;98430.69;;;8.99;100.00
5574;BME280;2563;52.242;7.956;2023-04-23T03:41:30;98433.41;;;8.96;100.00
5574;BME280;2563;52.242;7.956;2023-04-23T03:43:55;98427.59;;;8.92;100.00
5574;BME280;2563;52.242;7.956;2023-04-23T03:46:21;98436.44;;;8.86;100.00
5574;BME280;2563;52.242;7.956;2023-04-23T03:48:46;98430.72;;;8.81;100.00
5574;BME280;2563;52.242;7.956;2023-04-23T03:51:11;98426.72;;;8.76;100.00
5574;BME280;2563;52.242;7.956;2023-04-23T03:53:37;98435.50;;;8.71;100.00
5574;BME280;2563;52.242;7.956;2023-04-23T03:56:02;98429.44;;;8.72;100.00
5574;BME280;2563;52.242;7.956;2023-04-23T03:58:27;98429.44;;;8.72;100.00
5574;BME280;2563;52.242;7.956;2023-04-23T04:00:53;98426.13;;;8.70;100.00
5574;BME280;2563;52.242;7.956;2023-04-23T04:03:18;98426.19;;;8.69;100.00
5574;BME280;2563;52.242;7.956;2023-04-23T04:05:44;98432.16;;;8.69;100.00
5574;BME280;2563;52.242;7.956;2023-04-23T04:08:09;98428.69;;;8.70;100.00
5574;BME280;2563;52.242;7.956;2023-04-23T04:10:35;98426.44;;;8.64;100.00
5574;BME280;2563;52.242;7.956;2023-04-23T04:13:00;98437.59;;;8.63;100.00
5574;BME280;2563;52.242;7.956;2023-04-23T04:15:26;98433.38;;;8.62;100.00
5574;BME280;2563;52.242;7.956;2023-04-23T04:17:51;98430.94;;;8.59;100.00
5574;BME280;2563;52.242;7.956;2023-04-23T04:20:17;98426.00;;;8.56;100.00
5574;BME280;2563;52.242;7.956;2023-04-23T04:22:42;98440.50;;;8.57;100.00
5574;BME280;2563;52.242;7.956;2023-04-23T04:25:08;98443.88;;;8.58;100.00
5574;BME280;2563;52.242;7.956;2023-04-23T04:27:34;98437.06;;;8.57;100.00
5574;BME280;2563;52.242;7.956;2023-04-23T04:30:00;98445.50;;;8.59;100.00
5574;BME280;2563;52.242;7.956;2023-04-23T04:32:26;98445.44;;;8.60;100.00
5574;BME280;2563;52.242;7.956;2023-04-23T04:34:52;98445.50;;;8.59;100.00
5574;BME280;2563;52.242;7.956;2023-04-23T04:37:18;98447.19;;;8.60;100.00
5574;BME280;2563;52.242;7.956;2023-04-23T04:39:44;98441.31;;;8.58;100.00
5574;BME280;2563;52.242;7.956;2023-04-23T04:42:10;98443.78;;;8.59;100.00
5574;BME280;2563;52.242;7.956;2023-04-23T04:44:37;98435.72;;;8.49;100.00
5574;BME280;2563;52.242;7.956;2023-04-23T04:47:02;98455.25;;;8.52;100.00
5574;BME280;2563;52.242;7.956;2023-04-23T04:49:27;98452.09;;;8.47;100.00
5574;BME280;2563;52.242;7.956;2023-04-23T04:51:53;98448.63;;;8.48;100.00
5574;BME280;2563;52.242;7.956;2023-04-23T04:54:19;98458.19;;;8.44;100.00
5574;BME280;2563;52.242;7.956;2023-04-23T04:56:44;98475.91;;;8.49;100.00
5574;BME280;2563;52.242;7.956;2023-04-23T04:59:10;98472.47;;;8.50;100.00
5574;BME280;2563;52.242;7.956;2023-04-23T05:01:36;98474.78;;;8.55;100.00
5574;BME280;2563;52.242;7.956;2023-04-23T05:04:02;98481.56;;;8.56;100.00
5574;BME280;2563;52.242;7.956;2023-04-23T05:06:28;98490.69;;;8.61;100.00
5574;BME280;2563;52.242;7.956;2023-04-23T05:08:53;98495.53;;;8.67;100.00
5574;BME280;2563;52.242;7.956;2023-04-23T05:11:19;98488.97;;;8.79;100.00
5574;BME280;2563;52.242;7.956;2023-04-23T05:13:48;98489.31;;;8.89;100.00
5574;BME280;2563;52.242;7.956;2023-04-23T05:16:14;98496.41;;;9.01;100.00
5574;BME280;2563;52.242;7.956;2023-04-23T05:18:40;98498.63;;;9.07;100.00
5574;BME280;2563;52.242;7.956;2023-04-23T05:21:06;98505.09;;;9.14;100.00
5574;BME280;2563;52.242;7.956;2023-04-23T05:23:33;98502.66;;;9.29;100.00
5574;BME280;2563;52.242;7.956;2023-04-23T05:25:58;98511.88;;;9.33;100.00
5574;BME280;2563;52.242;7.956;2023-04-23T05:28:24;98510.47;;;9.43;100.00
5574;BME280;2563;52.242;7.956;2023-04-23T05:30:50;98502.53;;;9.48;100.00
5574;BME280;2563;52.242;7.956;2023-04-23T05:33:15;98504.72;;;9.55;100.00
5574;BME280;2563;52.242;7.956;2023-04-23T05:35:41;98511.84;;;9.66;100.00
5574;BME280;2563;52.242;7.956;2023-04-23T05:38:06;98506.84;;;9.79;100.00
5574;BME280;2563;52.242;7.956;2023-04-23T05:40:32;98495.75;;;9.94;100.00
5574;BME280;2563;52.242;7.956;2023-04-23T05:42:58;98494.41;;;10.19;100.00
5574;BME280;2563;52.242;7.956;2023-04-23T05:45:23;98475.16;;;10.26;100.00
5574;BME280;2563;52.242;7.956;2023-04-23T05:47:48;98480.78;;;10.49;100.00
5574;BME280;2563;52.242;7.956;2023-04-23T05:50:14;98470.91;;;10.85;100.00
5574;BME280;2563;52.242;7.956;2023-04-23T05:52:39;98470.47;;;10.93;100.00
5574;BME280;2563;52.242;7.956;2023-04-23T05:55:06;98457.03;;;11.31;100.00
5574;BME280;2563;52.242;7.956;2023-04-23T05:57:32;98447.16;;;11.52;100.00
5574;BME280;2563;52.242;7.956;2023-04-23T05:59:57;98439.25;;;11.55;100.00
5574;BME280;2563;52.242;7.956;2023-04-23T06:02:23;98424.63;;;11.83;100.00
5574;BME280;2563;52.242;7.956;2023-04-23T06:04:49;98399.19;;;11.64;100.00
5574;BME280;2563;52.242;7.956;2023-04-23T06:07:14;98390.38;;;11.54;100.00
5574;BME280;2563;52.242;7.956;2023-04-23T06:09:40;98367.09;;;11.28;100.00
5574;BME280;2563;52.242;7.956;2023-04-23T06:12:05;98353.59;;;11.10;100.00
5574;BME280;2563;52.242;7.956;2023-04-23T06:14:31;98356.84;;;10.99;100.00
5574;BME280;2563;52.242;7.956;2023-04-23T06:16:56;98392.72;;;11.44;100.00
5574;BME280;2563;52.242;7.956;2023-04-23T06:19:21;98369.34;;;11.74;100.00
5574;BME280;2563;52.242;7.956;2023-04-23T06:21:50;98373.47;;;11.77;100.00
5574;BME280;2563;52.242;7.956;2023-04-23T06:24:16;98369.16;;;12.04;100.00
5574;BME280;2563;52.242;7.956;2023-04-23T06:26:41;98350.47;;;12.13;100.00
5574;BME280;2563;52.242;7.956;2023-04-23T06:29:06;98351.72;;;12.59;100.00
5574;BME280;2563;52.242;7.956;2023-04-23T06:31:32;98342.63;;;12.92;100.00
5574;BME280;2563;52.242;7.956;2023-04-23T06:33:57;98318.16;;;13.34;100.00
5574;BME280;2563;52.242;7.956;2023-04-23T06:36:22;98319.06;;;13.93;100.00
5574;BME280;2563;52.242;7.956;2023-04-23T06:38:48;98288.06;;;14.04;100.00
5574;BME280;2563;52.242;7.956;2023-04-23T06:41:14;98273.25;;;14.17;100.00
5574;BME280;2563;52.242;7.956;2023-04-23T06:43:40;98310.09;;;14.43;100.00
5574;BME280;2563;52.242;7.956;2023-04-23T06:46:06;98300.84;;;15.29;100.00
5574;BME280;2563;52.242;7.956;2023-04-23T06:48:31;98294.09;;;15.38;100.00
5574;BME280;2563;52.242;7.956;2023-04-23T06:50:57;98329.66;;;15.47;100.00
5574;BME280;2563;52.242;7.956;2023-04-23T06:53:23;98342.31;;;15.29;100.00
5574;BME280;2563;52.242;7.956;2023-04-23T06:55:48;98407.38;;;15.04;100.00
5574;BME280;2563;52.242;7.956;2023-04-23T06:58:15;98487.91;;;15.01;100.00
5574;BME280;2563;52.242;7.956;2023-04-23T07:00:41;98552.59;;;15.25;100.00
5574;BME280;2563;52.242;7.956;2023-04-23T07:03:06;98596.94;;;15.44;100.00
5574;BME280;2563;52.242;7.956;2023-04-23T07:05:32;98655.56;;;15.34;100.00
5574;BME280;2563;52.242;7.956;2023-04-23T07:07:57;98727.97;;;15.48;100.00
5574;BME280;2563;52.242;7.956;2023-04-23T07:10:23;98771.31;;;15.46;100.00
5574;BME280;2563;52.242;7.956;2023-04-23T07:12:49;98828.28;;;15.48;100.00
5574;BME280;2563;52.242;7.956;2023-04-23T07:15:14;98891.38;;;16.08;100.00
5574;BME280;2563;52.242;7.956;2023-04-23T07:17:39;98941.47;;;16.21;100.00
5574;BME280;2563;52.242;7.956;2023-04-23T07:20:06;99003.63;;;16.47;100.00
5574;BME280;2563;52.242;7.956;2023-04-23T07:22:32;99013.38;;;16.67;100.00
5574;BME280;2563;52.242;7.956;2023-04-23T07:24:59;99091.47;;;17.01;100.00
5574;BME280;2563;52.242;7.956;2023-04-23T07:27:24;99128.16;;;17.20;100.00
5574;BME280;2563;52.242;7.956;2023-04-23T07:29:50;99181.88;;;17.44;100.00
5574;BME280;2563;52.242;7.956;2023-04-23T07:32:15;99234.75;;;17.20;100.00
5574;BME280;2563;52.242;7.956;2023-04-23T07:34:40;99272.47;;;17.26;100.00
5574;BME280;2563;52.242;7.956;2023-04-23T07:37:06;99313.56;;;17.34;100.00
5574;BME280;2563;52.242;7.956;2023-04-23T07:39:32;99350.16;;;17.79;100.00
5574;BME280;2563;52.242;7.956;2023-04-23T07:41:57;99352.00;;;17.90;100.00
5574;BME280;2563;52.242;7.956;2023-04-23T07:44:23;99359.59;;;17.69;100.00
5574;BME280;2563;52.242;7.956;2023-04-23T07:46:49;99391.59;;;18.06;100.00
5574;BME280;2563;52.242;7.956;2023-04-23T07:49:14;99397.91;;;17.67;100.00
5574;BME280;2563;52.242;7.956;2023-04-23T07:51:40;99447.09;;;18.06;100.00
5574;BME280;2563;52.242;7.956;2023-04-23T07:54:06;99441.56;;;18.58;100.00
5574;BME280;2563;52.242;7.956;2023-04-23T07:56:32;99430.59;;;17.95;100.00
5574;BME280;2563;52.242;7.956;2023-04-23T07:58:58;99471.03;;;18.12;100.00
5574;BME280;2563;52.242;7.956;2023-04-23T08:01:23;99477.38;;;18.67;100.00
5574;BME280;2563;52.242;7.956;2023-04-23T08:03:49;99442.31;;;18.71;100.00
5574;BME280;2563;52.242;7.956;2023-04-23T08:06:15;99441.13;;;18.75;100.00
5574;BME280;2563;52.242;7.956;2023-04-23T08:08:40;99413.91;;;17.97;100.00
5574;BME280;2563;52.242;7.956;2023-04-23T08:11:06;99466.00;;;17.60;100.00
5574;BME280;2563;52.242;7.956;2023-04-23T08:13:32;99462.81;;;17.44;100.00
5574;BME280;2563;52.242;7.956;2023-04-23T08:15:57;99451.09;;;17.38;100.00
5574;BME280;2563;52.242;7.956;2023-04-23T08:18:23;99464.31;;;17.22;100.00
5574;BME280;2563;52.242;7.956;2023-04-23T08:20:48;99498.19;;;17.47;100.00
5574;BME280;2563;52.242;7.956;2023-04-23T08:23:16;99421.09;;;16.96;100.00
5574;BME280;2563;52.242;7.956;2023-04-23T08:25:41;99495.53;;;17.10;100.00
5574;BME280;2563;52.242;7.956;2023-04-23T08:28:07;99452.91;;;17.12;100.00
5574;BME280;2563;52.242;7.956;2023-04-23T08:30:32;99454.75;;;17.10;100.00
5574;BME280;2563;52.242;7.956;2023-04-23T08:32:57;99464.53;;;16.94;100.00
5574;BME280;2563;52.242;7.956;2023-04-23T08:35:23;99435.22;;;16.92;100.00
5574;BME280;2563;52.242;7.956;2023-04-23T08:37:49;99482.44;;;16.86;100.00
5574;BME280;2563;52.242;7.956;2023-04-23T08:40:14;99469.13;;;17.03;100.00
5574;BME280;2563;52.242;7.956;2023-04-23T08:45:21;99440.69;;;17.26;100.00
5574;BME280;2563;52.242;7.956;2023-04-23T08:47:47;99448.09;;;17.06;100.00
5574;BME280;2563;52.242;7.956;2023-04-23T08:50:17;99525.16;;;17.95;100.00
5574;BME280;2563;52.242;7.956;2023-04-23T08:52:48;99459.81;;;18.58;100.00
5574;BME280;2563;52.242;7.956;2023-04-23T08:55:15;99392.38;;;19.54;100.00
5574;BME280;2563;52.242;7.956;2023-04-23T08:57:41;99455.38;;;19.27;100.00
5574;BME280;2563;52.242;7.956;2023-04-23T09:00:10;99422.88;;;19.54;100.00
5574;BME280;2563;52.242;7.956;2023-04-23T09:02:39;99366.47;;;20.16;100.00
5574;BME280;2563;52.242;7.956;2023-04-23T09:05:05;99337.63;;;19.75;100.00
5574;BME280;2563;52.242;7.956;2023-04-23T09:07:32;99351.84;;;20.25;100.00
5574;BME280;2563;52.242;7.956;2023-04-23T09:09:59;99289.03;;;20.05;100.00
5574;BME280;2563;52.242;7.956;2023-04-23T09:12:25;99325.81;;;19.49;100.00
5574;BME280;2563;52.242;7.956;2023-04-23T09:14:51;99337.41;;;19.24;100.00
5574;BME280;2563;52.242;7.956;2023-04-23T09:17:17;99360.69;;;19.16;100.00
5574;BME280;2563;52.242;7.956;2023-04-23T09:19:44;99363.81;;;20.06;100.00
5574;BME280;2563;52.242;7.956;2023-04-23T09:22:13;99285.06;;;20.63;100.00
5574;BME280;2563;52.242;7.956;2023-04-23T09:24:41;99205.84;;;21.11;100.00
5574;BME280;2563;52.242;7.956;2023-04-23T09:27:09;99125.09;;;21.35;100.00
5574;BME280;2563;52.242;7.956;2023-04-23T09:29:35;99104.03;;;21.47;100.00
5574;BME280;2563;52.242;7.956;2023-04-23T09:32:08;99108.97;;;21.50;100.00
5574;BME280;2563;52.242;7.956;2023-04-23T09:34:35;99097.50;;;21.60;100.00
5574;BME280;2563;52.242;7.956;2023-04-23T09:37:04;99158.47;;;21.04;100.00
5574;BME280;2563;52.242;7.956;2023-04-23T09:39:33;99109.94;;;21.49;100.00
5574;BME280;2563;52.242;7.956;2023-04-23T09:42:04;99098.53;;;21.77;100.00
5574;BME280;2563;52.242;7.956;2023-04-23T09:44:32;99183.53;;;21.07;100.00
5574;BME280;2563;52.242;7.956;2023-04-23T09:47:06;99125.47;;;21.97;100.00
5574;BME280;2563;52.242;7.956;2023-04-23T09:49:48;99113.66;;;22.21;100.00
5574;BME280;2563;52.242;7.956;2023-04-23T09:52:14;99032.38;;;23.19;100.00
5574;BME280;2563;52.242;7.956;2023-04-23T09:54:41;99096.59;;;23.32;100.00
5574;BME280;2563;52.242;7.956;2023-04-23T09:57:06;99183.25;;;23.14;100.00
5574;BME280;2563;52.242;7.956;2023-04-23T09:59:34;99427.34;;;21.21;100.00
5574;BME280;2563;52.242;7.956;2023-04-23T10:02:06;99421.13;;;21.82;100.00
5574;BME280;2563;52.242;7.956;2023-04-23T10:04:33;99343.59;;;23.03;100.00
5574;BME280;2563;52.242;7.956;2023-04-23T10:07:03;99284.06;;;23.57;100.00
5574;BME280;2563;52.242;7.956;2023-04-23T10:09:29;99374.69;;;22.61;100.00
5574;BME280;2563;52.242;7.956;2023-04-23T10:11:59;99347.31;;;22.73;100.00
5574;BME280;2563;52.242;7.956;2023-04-23T10:14:28;99415.34;;;22.08;100.00
5574;BME280;2563;52.242;7.956;2023-04-23T10:16:59;99348.78;;;22.85;100.00
5574;BME280;2563;52.242;7.956;2023-04-23T10:19:25;99285.25;;;23.63;100.00
5574;BME280;2563;52.242;7.956;2023-04-23T10:22:03;99394.38;;;22.84;100.00
5574;BME280;2563;52.242;7.956;2023-04-23T10:24:34;99534.78;;;21.51;100.00
5574;BME280;2563;52.242;7.956;2023-04-23T10:27:03;99578.91;;;21.34;100.00
5574;BME280;2563;52.242;7.956;2023-04-23T10:29:32;99592.13;;;21.54;100.00
5574;BME280;2563;52.242;7.956;2023-04-23T10:32:00;99628.09;;;20.77;100.00
5574;BME280;2563;52.242;7.956;2023-04-23T10:34:26;99658.59;;;20.45;100.00
5574;BME280;2563;52.242;7.956;2023-04-23T10:36:54;99674.78;;;20.50;100.00
5574;BME280;2563;52.242;7.956;2023-04-23T10:39:20;99670.38;;;20.39;100.00
5574;BME280;2563;52.242;7.956;2023-04-23T10:41:47;99628.81;;;22.35;100.00
5574;BME280;2563;52.242;7.956;2023-04-23T10:44:13;99620.69;;;22.47;100.00
5574;BME280;2563;52.242;7.956;2023-04-23T10:46:50;99655.59;;;21.67;100.00
5574;BME280;2563;52.242;7.956;2023-04-23T10:49:16;99693.72;;;21.07;100.00
5574;BME280;2563;52.242;7.956;2023-04-23T10:51:45;99712.44;;;20.58;100.00
5574;BME280;2563;52.242;7.956;2023-04-23T10:54:13;99712.19;;;21.26;100.00
5574;BME280;2563;52.242;7.956;2023-04-23T10:56:40;99709.94;;;21.96;100.00
5574;BME280;2563;52.242;7.956;2023-04-23T10:59:07;99707.44;;;22.75;100.00
5574;BME280;2563;52.242;7.956;2023-04-23T11:01:48;99731.56;;;21.67;100.00
5574;BME280;2563;52.242;7.956;2023-04-23T11:04:28;99740.19;;;22.40;100.00
5574;BME280;2563;52.242;7.956;2023-04-23T11:09:36;99782.63;;;21.40;100.00
5574;BME280;2563;52.242;7.956;2023-04-23T11:12:05;99770.66;;;20.49;100.00
5574;BME280;2563;52.242;7.956;2023-04-23T11:14:47;99763.41;;;20.19;100.00
5574;BME280;2563;52.242;7.956;2023-04-23T11:17:15;99767.69;;;20.20;100.00
5574;BME280;2563;52.242;7.956;2023-04-23T11:22:45;99793.56;;;22.08;100.00
5574;BME280;2563;52.242;7.956;2023-04-23T11:25:22;99775.66;;;21.18;100.00
5574;BME280;2563;52.242;7.956;2023-04-23T11:27:49;99796.13;;;22.20;100.00
5574;BME280;2563;52.242;7.956;2023-04-23T11:30:17;99802.75;;;22.95;100.00
5574;BME280;2563;52.242;7.956;2023-04-23T11:32:51;99813.59;;;23.60;100.00
5574;BME280;2563;52.242;7.956;2023-04-23T11:35:18;99783.91;;;22.70;100.00
5574;BME280;2563;52.242;7.956;2023-04-23T11:37:45;99764.31;;;22.03;100.00
5574;BME280;2563;52.242;7.956;2023-04-23T11:40:13;99747.84;;;20.74;100.00
5574;BME280;2563;52.242;7.956;2023-04-23T11:42:44;99746.75;;;21.20;100.00
5574;BME280;2563;52.242;7.956;2023-04-23T11:47:40;99764.22;;;22.45;100.00
5574;BME280;2563;52.242;7.956;2023-04-23T11:50:06;99758.25;;;22.34;100.00
5574;BME280;2563;52.242;7.956;2023-04-23T11:52:32;99741.19;;;22.18;100.00
5574;BME280;2563;52.242;7.956;2023-04-23T11:55:02;99755.44;;;22.56;100.00
5574;BME280;2563;52.242;7.956;2023-04-23T11:57:29;99754.63;;;22.65;100.00
5574;BME280;2563;52.242;7.956;2023-04-23T11:59:54;99744.00;;;22.26;100.00
5574;BME280;2563;52.242;7.956;2023-04-23T12:02:22;99759.59;;;22.59;100.00
5574;BME280;2563;52.242;7.956;2023-04-23T12:04:48;99772.25;;;23.72;100.00
5574;BME280;2563;52.242;7.956;2023-04-23T12:07:13;99771.75;;;24.15;100.00
5574;BME280;2563;52.242;7.956;2023-04-23T12:09:39;99741.69;;;22.93;100.00
5574;BME280;2563;52.242;7.956;2023-04-23T12:12:04;99741.13;;;22.80;100.00
5574;BME280;2563;52.242;7.956;2023-04-23T12:14:30;99718.38;;;22.09;100.00
5574;BME280;2563;52.242;7.956;2023-04-23T12:16:57;99711.09;;;21.61;100.00
5574;BME280;2563;52.242;7.956;2023-04-23T12:19:28;99715.13;;;21.44;100.00
5574;BME280;2563;52.242;7.956;2023-04-23T12:21:56;99700.75;;;21.06;100.00
5574;BME280;2563;52.242;7.956;2023-04-23T12:24:22;99703.25;;;20.75;100.00
5574;BME280;2563;52.242;7.956;2023-04-23T12:26:52;99711.63;;;21.22;100.00
5574;BME280;2563;52.242;7.956;2023-04-23T12:29:19;99714.97;;;21.87;100.00
5574;BME280;2563;52.242;7.956;2023-04-23T12:31:46;99717.09;;;21.94;100.00
5574;BME280;2563;52.242;7.956;2023-04-23T12:34:13;99718.47;;;22.28;100.00
5574;BME280;2563;52.242;7.956;2023-04-23T12:36:53;99717.34;;;22.62;100.00
5574;BME280;2563;52.242;7.956;2023-04-23T12:39:32;99713.66;;;22.34;100.00
5574;BME280;2563;52.242;7.956;2023-04-23T12:42:03;99705.81;;;22.03;100.00
5574;BME280;2563;52.242;7.956;2023-04-23T12:44:30;99693.53;;;21.73;100.00
5574;BME280;2563;52.242;7.956;2023-04-23T12:47:00;99683.16;;;21.71;100.00
5574;BME280;2563;52.242;7.956;2023-04-23T12:49:29;99685.41;;;22.06;100.00
5574;BME280;2563;52.242;7.956;2023-04-23T12:51:55;99692.66;;;22.24;100.00
5574;BME280;2563;52.242;7.956;2023-04-23T12:54:25;99688.44;;;22.12;100.00
5574;BME280;2563;52.242;7.956;2023-04-23T12:56:51;99686.78;;;22.01;100.00
5574;BME280;2563;52.242;7.956;2023-04-23T12:59:17;99687.19;;;22.27;100.00
5574;BME280;2563;52.242;7.956;2023-04-23T13:01:42;99694.09;;;22.38;100.00
5574;BME280;2563;52.242;7.956;2023-04-23T13:04:07;99674.84;;;21.87;100.00
5574;BME280;2563;52.242;7.956;2023-04-23T13:06:33;99667.06;;;21.76;100.00
5574;BME280;2563;52.242;7.956;2023-04-23T13:09:00;99666.75;;;21.69;100.00
5574;BME280;2563;52.242;7.956;2023-04-23T13:11:27;99659.22;;;21.55;100.00
5574;BME280;2563;52.242;7.956;2023-04-23T13:13:53;99661.75;;;21.87;100.00
5574;BME280;2563;52.242;7.956;2023-04-23T13:16:18;99664.78;;;21.61;100.00
5574;BME280;2563;52.242;7.956;2023-04-23T13:18:44;99645.44;;;21.11;100.00
5574;BME280;2563;52.242;7.956;2023-04-23T13:21:09;99632.22;;;20.91;100.00